createdAt,value
2018-02-21T00:00:15.959Z,89.03
2018-02-21T00:01:15.959Z,88.84
2018-02-21T00:02:15.899Z,89.03
2018-02-21T00:03:15.861Z,89.50
2018-02-21T00:04:15.832Z,89.31
2018-02-21T00:05:15.802Z,89.69
2018-02-21T00:06:15.764Z,89.87
2018-02-21T00:07:15.737Z,89.87
2018-02-21T00:08:15.707Z,89.50
2018-02-21T00:09:15.668Z,89.87
2018-02-21T00:10:15.641Z,89.40
2018-02-21T00:11:15.617Z,89.69
2018-02-21T00:12:15.572Z,90.06
2018-02-21T00:13:15.557Z,89.78
2018-02-21T00:14:15.514Z,90.06
2018-02-21T00:15:15.470Z,90.44
2018-02-21T00:16:15.437Z,90.16
2018-02-21T00:17:15.398Z,90.16
2018-02-21T00:18:15.380Z,89.69
2018-02-21T00:19:15.344Z,89.59
2018-02-21T00:20:15.304Z,89.50
2018-02-21T00:21:15.276Z,90.25
2018-02-21T00:22:15.241Z,90.06
2018-02-21T00:23:15.212Z,90.63
2018-02-21T00:24:15.175Z,89.50
2018-02-21T00:25:15.136Z,89.59
2018-02-21T00:26:15.116Z,89.50
2018-02-21T00:27:15.080Z,90.35
2018-02-21T00:28:15.052Z,89.87
2018-02-21T00:29:15.018Z,90.16
2018-02-21T00:30:14.983Z,90.06
2018-02-21T00:31:14.943Z,90.16
2018-02-21T00:32:14.918Z,89.87
2018-02-21T00:33:14.900Z,90.63
2018-02-21T00:34:14.857Z,90.06
2018-02-21T00:35:14.820Z,90.35
2018-02-21T00:36:14.808Z,89.87
2018-02-21T00:37:14.758Z,90.35
2018-02-21T00:38:14.727Z,90.06
2018-02-21T00:39:14.676Z,89.97
2018-02-21T00:40:14.653Z,90.25
2018-02-21T00:41:14.612Z,90.82
2018-02-21T00:42:14.581Z,90.35
2018-02-21T00:43:14.562Z,90.25
2018-02-21T00:44:14.527Z,90.06
2018-02-21T00:45:14.487Z,90.06
2018-02-21T00:46:14.448Z,90.35
2018-02-21T00:47:14.412Z,90.06
2018-02-21T00:48:14.399Z,89.97
2018-02-21T00:49:14.351Z,90.91
2018-02-21T00:50:14.322Z,90.73
2018-02-21T00:51:14.284Z,91.29
2018-02-21T00:52:14.257Z,90.54
2018-02-21T00:53:14.241Z,90.54
2018-02-21T00:54:14.190Z,90.73
2018-02-21T00:55:14.149Z,90.63
2018-02-21T00:56:14.124Z,90.73
2018-02-21T00:57:14.089Z,90.73
2018-02-21T00:58:14.063Z,91.96
2018-02-21T00:59:14.030Z,91.01
2018-02-21T01:00:14.011Z,91.01
2018-02-21T01:01:13.967Z,90.82
2018-02-21T01:02:13.930Z,90.35
2018-02-21T01:03:13.889Z,89.87
2018-02-21T01:04:13.863Z,90.06
2018-02-21T01:05:13.831Z,89.78
2018-02-21T01:06:13.802Z,89.50
2018-02-21T01:07:13.765Z,89.78
2018-02-21T01:08:13.772Z,89.78
2018-02-21T01:09:13.702Z,90.82
2018-02-21T01:10:13.658Z,90.35
2018-02-21T01:11:13.661Z,90.35
2018-02-21T01:12:13.598Z,89.59
2018-02-21T01:13:13.572Z,89.69
2018-02-21T01:14:13.530Z,90.06
2018-02-21T01:15:13.499Z,90.54
2018-02-21T01:16:13.485Z,90.63
2018-02-21T01:17:13.440Z,90.44
2018-02-21T01:18:13.401Z,90.63
2018-02-21T01:19:13.386Z,90.35
2018-02-21T01:20:13.342Z,90.82
2018-02-21T01:21:13.317Z,90.82
2018-02-21T01:22:13.275Z,90.44
2018-02-21T01:23:13.255Z,91.20
2018-02-21T01:24:13.227Z,91.01
2018-02-21T01:25:13.176Z,90.44
2018-02-21T01:26:13.152Z,90.63
2018-02-21T01:27:13.102Z,90.63
2018-02-21T01:28:13.088Z,90.73
2018-02-21T01:29:13.040Z,90.44
2018-02-21T01:30:13.004Z,90.63
2018-02-21T01:31:12.985Z,90.16
2018-02-21T01:32:12.986Z,90.16
2018-02-21T01:33:12.913Z,89.50
2018-02-21T01:34:12.880Z,89.69
2018-02-21T01:35:12.847Z,89.50
2018-02-21T01:36:12.824Z,89.59
2018-02-21T01:37:12.780Z,90.35
2018-02-21T01:38:12.742Z,90.91
2018-02-21T01:39:12.712Z,91.10
2018-02-21T01:40:12.713Z,90.73
2018-02-21T01:41:12.646Z,90.06
2018-02-21T01:42:12.615Z,90.16
2018-02-21T01:43:12.589Z,90.54
2018-02-21T01:44:12.548Z,90.91
2018-02-21T01:45:12.532Z,90.16
2018-02-21T01:46:12.498Z,90.25
2018-02-21T01:47:12.448Z,90.25
2018-02-21T01:48:12.421Z,89.50
2018-02-21T01:49:12.384Z,89.50
2018-02-21T01:50:12.352Z,90.44
2018-02-21T01:51:12.341Z,90.06
2018-02-21T01:52:12.306Z,90.25
2018-02-21T01:53:12.282Z,90.82
2018-02-21T01:54:12.230Z,90.63
2018-02-21T01:55:12.203Z,90.82
2018-02-21T01:56:12.158Z,91.20
2018-02-21T01:57:12.126Z,91.77
2018-02-21T01:58:12.102Z,91.58
2018-02-21T01:59:12.055Z,92.05
2018-02-21T02:00:12.038Z,91.86
2018-02-21T02:01:11.993Z,92.33
2018-02-21T02:02:11.973Z,92.14
2018-02-21T02:03:11.933Z,92.52
2018-02-21T02:04:11.899Z,92.43
2018-02-21T02:05:11.864Z,91.96
2018-02-21T02:06:11.842Z,91.96
2018-02-21T02:07:11.803Z,91.77
2018-02-21T02:08:11.767Z,91.77
2018-02-21T02:09:11.734Z,91.29
2018-02-21T02:10:11.692Z,91.01
2018-02-21T02:11:11.664Z,90.54
2018-02-21T02:12:11.641Z,90.82
2018-02-21T02:13:11.596Z,90.16
2018-02-21T02:14:11.566Z,90.44
2018-02-21T02:15:11.527Z,90.91
2018-02-21T02:16:11.506Z,90.82
2018-02-21T02:17:11.464Z,90.91
2018-02-21T02:18:11.459Z,91.67
2018-02-21T02:19:11.398Z,91.67
2018-02-21T02:20:11.374Z,91.67
2018-02-21T02:21:11.336Z,91.58
2018-02-21T02:22:11.308Z,91.77
2018-02-21T02:23:11.277Z,91.58
2018-02-21T02:24:11.237Z,91.67
2018-02-21T02:25:11.200Z,92.61
2018-02-21T02:26:11.186Z,92.80
2018-02-21T02:27:11.161Z,92.52
2018-02-21T02:28:11.101Z,91.67
2018-02-21T02:29:11.097Z,92.14
2018-02-21T02:30:11.033Z,91.96
2018-02-21T02:31:11.012Z,92.43
2018-02-21T02:32:10.986Z,91.67
2018-02-21T02:33:10.940Z,91.67
2018-02-21T02:34:10.913Z,91.96
2018-02-21T02:35:10.886Z,91.39
2018-02-21T02:36:10.857Z,91.67
2018-02-21T02:37:10.815Z,91.20
2018-02-21T02:38:10.776Z,91.10
2018-02-21T02:39:10.746Z,91.58
2018-02-21T02:40:10.711Z,91.48
2018-02-21T02:41:10.676Z,91.86
2018-02-21T02:42:10.642Z,91.77
2018-02-21T02:43:10.608Z,92.14
2018-02-21T02:44:10.583Z,92.52
2018-02-21T02:45:10.566Z,92.71
2018-02-21T02:46:10.509Z,92.24
2018-02-21T02:47:10.481Z,92.52
2018-02-21T02:48:10.459Z,92.14
2018-02-21T02:49:10.432Z,92.61
2018-02-21T02:50:10.389Z,93.04
2018-02-21T02:51:10.355Z,93.23
2018-02-21T02:52:10.318Z,93.70
2018-02-21T02:53:10.286Z,93.61
2018-02-21T02:54:10.248Z,93.70
2018-02-21T02:55:10.212Z,93.51
2018-02-21T02:56:10.189Z,94.08
2018-02-21T02:57:10.154Z,93.80
2018-02-21T02:58:10.118Z,94.08
2018-02-21T02:59:10.088Z,94.08
2018-02-21T03:00:10.058Z,93.80
2018-02-21T03:01:10.014Z,94.08
2018-02-21T03:02:09.980Z,93.99
2018-02-21T03:03:09.956Z,94.27
2018-02-21T03:04:09.918Z,94.56
2018-02-21T03:05:09.884Z,94.65
2018-02-21T03:06:09.856Z,94.56
2018-02-21T03:07:09.820Z,94.46
2018-02-21T03:08:09.793Z,94.46
2018-02-21T03:09:09.771Z,94.46
2018-02-21T03:10:09.708Z,94.65
2018-02-21T03:11:09.686Z,94.93
2018-02-21T03:12:09.675Z,94.93
2018-02-21T03:13:09.615Z,94.46
2018-02-21T03:14:09.595Z,94.46
2018-02-21T03:15:09.551Z,94.93
2018-02-21T03:16:09.519Z,94.93
2018-02-21T03:17:09.479Z,94.93
2018-02-21T03:18:09.453Z,95.78
2018-02-21T03:19:09.408Z,95.03
2018-02-21T03:20:09.387Z,95.03
2018-02-21T03:21:09.348Z,94.74
2018-02-21T03:22:09.315Z,94.84
2018-02-21T03:23:09.275Z,94.56
2018-02-21T03:24:09.258Z,94.56
2018-02-21T03:25:09.227Z,94.65
2018-02-21T03:26:09.196Z,94.84
2018-02-21T03:27:09.143Z,94.46
2018-02-21T03:28:09.116Z,94.56
2018-02-21T03:29:09.078Z,94.84
2018-02-21T03:30:09.056Z,94.84
2018-02-21T03:31:09.019Z,94.46
2018-02-21T03:32:08.992Z,94.56
2018-02-21T03:33:08.957Z,94.74
2018-02-21T03:34:08.930Z,94.56
2018-02-21T03:35:08.885Z,94.27
2018-02-21T03:36:08.852Z,93.51
2018-02-21T03:37:08.810Z,94.18
2018-02-21T03:38:08.796Z,94.08
2018-02-21T03:39:08.757Z,93.80
2018-02-21T03:40:08.722Z,93.99
2018-02-21T03:41:08.686Z,93.51
2018-02-21T03:42:08.651Z,93.80
2018-02-21T03:43:08.614Z,93.61
2018-02-21T03:44:08.575Z,93.61
2018-02-21T03:45:08.548Z,94.08
2018-02-21T03:46:08.510Z,94.27
2018-02-21T03:47:08.480Z,94.27
2018-02-21T03:48:08.454Z,94.08
2018-02-21T03:49:08.407Z,93.80
2018-02-21T03:50:08.389Z,94.27
2018-02-21T03:51:08.353Z,93.70
2018-02-21T03:52:08.345Z,93.80
2018-02-21T03:53:08.288Z,94.08
2018-02-21T03:54:08.250Z,93.80
2018-02-21T03:55:08.217Z,93.61
2018-02-21T03:56:08.184Z,93.47
2018-02-21T03:57:08.152Z,93.32
2018-02-21T03:58:08.118Z,93.32
2018-02-21T03:59:08.087Z,93.42
2018-02-21T04:00:08.044Z,93.42
2018-02-21T04:01:08.019Z,94.08
2018-02-21T04:02:07.990Z,94.18
2018-02-21T04:03:07.955Z,94.08
2018-02-21T04:04:07.919Z,93.99
2018-02-21T04:05:07.883Z,94.46
2018-02-21T04:06:07.856Z,94.74
2018-02-21T04:07:07.822Z,94.65
2018-02-21T04:08:07.790Z,94.74
2018-02-21T04:09:07.748Z,94.74
2018-02-21T04:10:07.731Z,94.74
2018-02-21T04:11:07.681Z,94.46
2018-02-21T04:12:07.650Z,94.18
2018-02-21T04:13:07.620Z,95.03
2018-02-21T04:14:07.605Z,94.56
2018-02-21T04:15:07.566Z,94.93
2018-02-21T04:16:07.525Z,94.74
2018-02-21T04:17:07.480Z,94.74
2018-02-21T04:18:07.481Z,94.56
2018-02-21T04:19:07.423Z,94.79
2018-02-21T04:20:07.391Z,94.51
2018-02-21T04:21:07.354Z,94.03
2018-02-21T04:22:07.315Z,93.47
2018-02-21T04:23:07.285Z,93.18
2018-02-21T04:24:07.251Z,93.47
2018-02-21T04:25:09.127Z,92.90
2018-02-21T04:26:09.289Z,92.71
2018-02-21T04:27:10.281Z,92.61
2018-02-21T04:28:07.129Z,92.24
2018-02-21T04:29:07.087Z,92.80
2018-02-21T04:30:07.049Z,92.85
2018-02-21T04:31:07.016Z,93.42
2018-02-21T04:32:07.010Z,93.23
2018-02-21T04:33:06.965Z,93.51
2018-02-21T04:34:06.951Z,93.13
2018-02-21T04:35:06.895Z,93.42
2018-02-21T04:36:06.848Z,93.51
2018-02-21T04:37:06.814Z,93.70
2018-02-21T04:38:06.784Z,93.42
2018-02-21T04:39:06.757Z,93.99
2018-02-21T04:40:06.727Z,93.32
2018-02-21T04:41:06.692Z,93.47
2018-02-21T04:42:06.654Z,93.47
2018-02-21T04:43:06.636Z,93.37
2018-02-21T04:44:06.588Z,92.99
2018-02-21T04:45:06.566Z,92.61
2018-02-21T04:46:06.521Z,92.71
2018-02-21T04:47:06.495Z,92.43
2018-02-21T04:48:06.457Z,92.52
2018-02-21T04:49:06.425Z,92.61
2018-02-21T04:50:06.398Z,91.77
2018-02-21T04:51:06.358Z,91.96
2018-02-21T04:52:06.319Z,91.67
2018-02-21T04:53:06.290Z,91.96
2018-02-21T04:54:06.257Z,91.58
2018-02-21T04:55:06.235Z,91.01
2018-02-21T04:56:06.212Z,91.86
2018-02-21T04:57:06.162Z,90.82
2018-02-21T04:58:06.122Z,90.35
2018-02-21T04:59:06.094Z,90.82
2018-02-21T05:00:06.094Z,91.10
2018-02-21T05:01:06.032Z,91.48
2018-02-21T05:02:05.992Z,91.77
2018-02-21T05:03:05.964Z,92.38
2018-02-21T05:04:05.925Z,92.94
2018-02-21T05:05:05.895Z,92.57
2018-02-21T05:06:05.867Z,92.66
2018-02-21T05:07:05.833Z,93.51
2018-02-21T05:08:05.793Z,93.42
2018-02-21T05:09:05.765Z,93.61
2018-02-21T05:10:05.725Z,93.13
2018-02-21T05:11:05.694Z,93.89
2018-02-21T05:12:05.672Z,93.80
2018-02-21T05:13:05.634Z,94.46
2018-02-21T05:14:05.602Z,94.46
2018-02-21T05:15:05.588Z,94.65
2018-02-21T05:16:05.542Z,94.84
2018-02-21T05:17:05.510Z,94.65
2018-02-21T05:18:05.464Z,94.46
2018-02-21T05:19:05.431Z,94.93
2018-02-21T05:20:05.413Z,94.84
2018-02-21T05:21:05.369Z,95.12
2018-02-21T05:22:05.329Z,94.93
2018-02-21T05:23:05.304Z,94.93
2018-02-21T05:24:05.281Z,94.93
2018-02-21T05:25:05.236Z,95.59
2018-02-21T05:26:05.194Z,95.50
2018-02-21T05:27:05.167Z,95.40
2018-02-21T05:28:05.133Z,95.78
2018-02-21T05:29:05.099Z,95.31
2018-02-21T05:30:05.075Z,95.50
2018-02-21T05:31:05.039Z,95.31
2018-02-21T05:32:04.995Z,95.87
2018-02-21T05:33:04.992Z,95.68
2018-02-21T05:34:04.933Z,95.50
2018-02-21T05:35:04.915Z,95.59
2018-02-21T05:36:04.859Z,96.44
2018-02-21T05:37:04.914Z,96.25
2018-02-21T05:38:04.823Z,96.54
2018-02-21T05:39:04.768Z,96.44
2018-02-21T05:40:04.748Z,96.35
2018-02-21T05:41:04.731Z,96.25
2018-02-21T05:42:04.670Z,96.25
2018-02-21T05:43:04.655Z,96.35
2018-02-21T05:44:04.631Z,96.16
2018-02-21T05:45:04.574Z,96.25
2018-02-21T05:46:04.542Z,96.06
2018-02-21T05:47:04.513Z,96.35
2018-02-21T05:48:04.478Z,96.44
2018-02-21T05:49:04.440Z,96.44
2018-02-21T05:50:04.403Z,96.25
2018-02-21T05:51:04.364Z,96.63
2018-02-21T05:52:04.334Z,96.44
2018-02-21T05:53:04.322Z,96.16
2018-02-21T05:54:04.265Z,96.44
2018-02-21T05:55:04.239Z,96.35
2018-02-21T05:56:04.208Z,96.16
2018-02-21T05:57:04.181Z,96.25
2018-02-21T05:58:04.136Z,96.35
2018-02-21T05:59:04.103Z,96.25
2018-02-21T06:00:04.099Z,96.82
2018-02-21T06:01:04.070Z,96.44
2018-02-21T06:02:04.019Z,96.54
2018-02-21T06:03:03.980Z,97.86
2018-02-21T06:04:04.830Z,97.29
2018-02-21T06:05:03.905Z,97.01
2018-02-21T06:06:03.862Z,97.20
2018-02-21T06:07:03.839Z,97.48
2018-02-21T06:08:03.798Z,96.73
2018-02-21T06:09:03.768Z,95.31
2018-02-21T06:10:03.734Z,95.40
2018-02-21T06:11:03.693Z,95.40
2018-02-21T06:12:03.664Z,96.44
2018-02-21T06:13:03.636Z,96.44
2018-02-21T06:14:03.613Z,96.25
2018-02-21T06:15:03.571Z,96.44
2018-02-21T06:16:03.562Z,96.54
2018-02-21T06:17:03.495Z,97.10
2018-02-21T06:18:03.465Z,97.01
2018-02-21T06:19:03.446Z,96.44
2018-02-21T06:20:03.407Z,96.63
2018-02-21T06:21:03.361Z,96.39
2018-02-21T06:22:03.329Z,97.43
2018-02-21T06:23:03.305Z,97.01
2018-02-21T06:24:03.257Z,97.10
2018-02-21T06:25:03.271Z,97.20
2018-02-21T06:26:03.205Z,97.01
2018-02-21T06:27:03.157Z,96.73
2018-02-21T06:28:03.118Z,96.91
2018-02-21T06:29:03.112Z,97.10
2018-02-21T06:30:03.056Z,97.01
2018-02-21T06:31:03.022Z,96.91
2018-02-21T06:32:03.006Z,97.34
2018-02-21T06:33:02.955Z,97.10
2018-02-21T06:34:02.936Z,97.43
2018-02-21T06:35:02.901Z,97.24
2018-02-21T06:36:02.861Z,97.81
2018-02-21T06:37:02.829Z,97.72
2018-02-21T06:38:02.786Z,98.10
2018-02-21T06:39:02.760Z,97.81
2018-02-21T06:40:02.717Z,97.91
2018-02-21T06:41:02.700Z,98.14
2018-02-21T06:42:02.665Z,98.14
2018-02-21T06:43:02.615Z,98.14
2018-02-21T06:44:02.599Z,97.86
2018-02-21T06:45:02.553Z,97.10
2018-02-21T06:46:02.528Z,95.68
2018-02-21T06:47:02.483Z,95.87
2018-02-21T06:48:02.480Z,95.31
2018-02-21T06:49:02.467Z,94.93
2018-02-21T06:50:02.385Z,93.61
2018-02-21T06:51:02.347Z,93.51
2018-02-21T06:52:02.317Z,93.70
2018-02-21T06:53:02.278Z,93.42
2018-02-21T06:54:02.251Z,94.08
2018-02-21T06:55:02.216Z,94.46
2018-02-21T06:56:02.176Z,94.37
2018-02-21T06:57:02.167Z,95.31
2018-02-21T06:58:02.113Z,95.59
2018-02-21T06:59:02.092Z,95.78
2018-02-21T07:00:02.048Z,95.31
2018-02-21T07:01:02.027Z,95.59
2018-02-21T07:02:01.987Z,95.59
2018-02-21T07:03:01.969Z,95.68
2018-02-21T07:04:01.916Z,96.54
2018-02-21T07:05:01.879Z,96.35
2018-02-21T07:06:01.860Z,96.44
2018-02-21T07:07:01.837Z,96.44
2018-02-21T07:08:01.776Z,96.54
2018-02-21T07:09:01.748Z,96.35
2018-02-21T07:10:01.706Z,96.44
2018-02-21T07:11:01.672Z,96.44
2018-02-21T07:12:01.649Z,96.63
2018-02-21T07:13:01.609Z,96.06
2018-02-21T07:14:01.575Z,96.25
2018-02-21T07:15:01.588Z,96.35
2018-02-21T07:16:01.514Z,96.44
2018-02-21T07:17:01.498Z,96.35
2018-02-21T07:18:01.454Z,96.44
2018-02-21T07:19:01.413Z,96.35
2018-02-21T07:20:01.369Z,96.35
2018-02-21T07:21:01.342Z,96.73
2018-02-21T07:22:01.316Z,96.63
2018-02-21T07:23:01.272Z,96.54
2018-02-21T07:24:01.244Z,96.54
2018-02-21T07:25:01.222Z,96.44
2018-02-21T07:26:01.173Z,96.54
2018-02-21T07:27:01.156Z,96.54
2018-02-21T07:28:01.109Z,96.73
2018-02-21T07:29:01.074Z,96.63
2018-02-21T07:30:01.049Z,96.25
2018-02-21T07:31:01.008Z,96.06
2018-02-21T07:32:00.987Z,96.25
2018-02-21T07:33:00.946Z,95.97
2018-02-21T07:34:00.912Z,96.44
2018-02-21T07:35:00.872Z,96.25
2018-02-21T07:36:00.835Z,96.25
2018-02-21T07:37:00.810Z,95.50
2018-02-21T07:38:00.767Z,95.68
2018-02-21T07:39:00.742Z,96.44
2018-02-21T07:40:00.700Z,96.44
2018-02-21T07:41:00.666Z,96.35
2018-02-21T07:42:00.640Z,95.78
2018-02-21T07:43:00.609Z,95.40
2018-02-21T07:44:00.571Z,95.68
2018-02-21T07:45:00.539Z,95.68
2018-02-21T07:46:00.529Z,96.44
2018-02-21T07:47:00.472Z,95.21
2018-02-21T07:48:00.443Z,95.50
2018-02-21T07:49:00.467Z,96.44
2018-02-21T07:50:00.410Z,95.87
2018-02-21T07:51:00.340Z,95.12
2018-02-21T07:52:00.310Z,95.21
2018-02-21T07:53:00.280Z,96.25
2018-02-21T07:54:00.269Z,96.73
2018-02-21T07:55:00.226Z,94.60
2018-02-21T07:56:00.194Z,95.26
2018-02-21T07:57:00.144Z,95.36
2018-02-21T07:58:00.105Z,94.51
2018-02-21T07:59:00.076Z,93.75
2018-02-21T08:00:00.040Z,93.75
2018-02-21T08:01:00.034Z,92.52
2018-02-21T08:01:59.975Z,92.52
2018-02-21T08:02:59.997Z,93.28
2018-02-21T08:03:59.919Z,93.66
2018-02-21T08:04:59.912Z,93.37
2018-02-21T08:05:59.851Z,92.43
2018-02-21T08:06:59.802Z,92.52
2018-02-21T08:07:59.778Z,92.90
2018-02-21T08:08:59.759Z,93.18
2018-02-21T08:09:59.725Z,93.56
2018-02-21T08:10:59.684Z,93.47
2018-02-21T08:12:00.123Z,92.05
2018-02-21T08:12:59.614Z,91.86
2018-02-21T08:13:59.590Z,92.43
2018-02-21T08:14:59.538Z,92.99
2018-02-21T08:15:59.583Z,92.61
2018-02-21T08:16:59.480Z,91.67
2018-02-21T08:17:59.445Z,90.54
2018-02-21T08:18:59.421Z,90.35
2018-02-21T08:19:59.392Z,89.50
2018-02-21T08:20:59.344Z,90.16
2018-02-21T08:21:59.315Z,90.16
2018-02-21T08:22:59.285Z,90.73
2018-02-21T08:23:59.243Z,91.10
2018-02-21T08:24:59.255Z,91.58
2018-02-21T08:25:59.226Z,91.48
2018-02-21T08:26:59.160Z,91.77
2018-02-21T08:27:59.134Z,92.05
2018-02-21T08:28:59.107Z,92.05
2018-02-21T08:29:59.047Z,92.24
2018-02-21T08:30:59.040Z,92.24
2018-02-21T08:31:59.005Z,92.33
2018-02-21T08:32:58.982Z,92.43
2018-02-21T08:33:59.017Z,92.33
2018-02-21T08:34:58.997Z,92.43
2018-02-21T08:35:58.854Z,92.80
2018-02-21T08:36:58.869Z,93.09
2018-02-21T08:37:58.879Z,93.37
2018-02-21T08:38:58.763Z,93.37
2018-02-21T08:39:58.815Z,93.18
2018-02-21T08:40:58.764Z,92.99
2018-02-21T08:41:58.716Z,92.99
2018-02-21T08:42:58.688Z,93.18
2018-02-21T08:43:58.694Z,92.80
2018-02-21T08:44:58.652Z,91.58
2018-02-21T08:45:58.602Z,90.63
2018-02-21T08:46:58.494Z,90.63
2018-02-21T08:47:58.537Z,90.16
2018-02-21T08:48:58.530Z,90.73
2018-02-21T08:49:58.451Z,91.01
2018-02-21T08:50:58.434Z,91.05
2018-02-21T08:51:58.382Z,89.64
2018-02-21T08:52:58.438Z,88.88
2018-02-21T08:53:58.409Z,88.88
2018-02-21T08:54:58.381Z,88.12
2018-02-21T08:55:58.191Z,87.74
2018-02-21T08:56:58.152Z,87.55
2018-02-21T08:57:58.130Z,87.65
2018-02-21T08:58:58.099Z,87.55
2018-02-21T08:59:58.066Z,87.84
2018-02-21T09:00:58.026Z,87.93
2018-02-21T09:01:57.998Z,87.46
2018-02-21T09:02:57.984Z,87.74
2018-02-21T09:03:57.934Z,87.55
2018-02-21T09:04:57.891Z,87.84
2018-02-21T09:05:57.873Z,87.37
2018-02-21T09:06:57.848Z,87.18
2018-02-21T09:07:57.795Z,86.71
2018-02-21T09:08:57.764Z,86.80
2018-02-21T09:09:57.739Z,86.33
2018-02-21T09:10:57.698Z,86.04
2018-02-21T09:11:57.692Z,85.47
2018-02-21T09:12:57.636Z,85.57
2018-02-21T09:13:57.601Z,85.38
2018-02-21T09:14:57.572Z,85.00
2018-02-21T09:15:57.546Z,84.53
2018-02-21T09:16:57.504Z,84.53
2018-02-21T09:17:57.471Z,85.19
2018-02-21T09:18:57.449Z,85.19
2018-02-21T09:19:57.423Z,84.72
2018-02-21T09:20:57.374Z,84.06
2018-02-21T09:21:57.339Z,84.53
2018-02-21T09:22:57.299Z,84.25
2018-02-21T09:23:57.276Z,84.34
2018-02-21T09:24:57.256Z,84.58
2018-02-21T09:25:57.218Z,84.10
2018-02-21T09:26:57.173Z,83.82
2018-02-21T09:27:57.141Z,83.82
2018-02-21T09:28:57.104Z,82.87
2018-02-21T09:29:57.083Z,82.87
2018-02-21T09:30:57.049Z,82.78
2018-02-21T09:31:57.041Z,82.87
2018-02-21T09:32:56.981Z,82.78
2018-02-21T09:33:56.949Z,82.40
2018-02-21T09:34:56.926Z,82.21
2018-02-21T09:35:56.887Z,81.93
2018-02-21T09:36:56.885Z,82.40
2018-02-21T09:37:56.822Z,82.40
2018-02-21T09:38:56.788Z,81.36
2018-02-21T09:39:56.787Z,81.26
2018-02-21T09:40:56.738Z,81.17
2018-02-21T09:41:56.686Z,80.60
2018-02-21T09:42:56.662Z,80.88
2018-02-21T09:43:56.629Z,80.98
2018-02-21T09:44:56.612Z,80.79
2018-02-21T09:45:56.562Z,80.60
2018-02-21T09:46:56.526Z,80.60
2018-02-21T09:47:56.572Z,81.07
2018-02-21T09:48:56.476Z,80.69
2018-02-21T09:49:56.428Z,80.55
2018-02-21T09:50:56.418Z,79.75
2018-02-21T09:51:56.371Z,80.13
2018-02-21T09:52:56.332Z,80.22
2018-02-21T09:53:56.327Z,80.22
2018-02-21T09:54:56.340Z,79.94
2018-02-21T09:55:56.253Z,80.04
2018-02-21T09:56:56.221Z,79.85
2018-02-21T09:57:56.178Z,80.60
2018-02-21T09:58:56.152Z,80.13
2018-02-21T09:59:56.176Z,79.18
2018-02-21T10:00:56.117Z,78.90
2018-02-21T10:01:56.047Z,79.28
2018-02-21T10:02:56.044Z,79.18
2018-02-21T10:03:56.000Z,78.99
2018-02-21T10:04:56.018Z,78.33
2018-02-21T10:05:55.922Z,78.61
2018-02-21T10:06:55.896Z,78.42
2018-02-21T10:07:55.862Z,78.33
2018-02-21T10:08:55.841Z,78.61
2018-02-21T10:09:55.812Z,78.42
2018-02-21T10:10:55.773Z,77.89
2018-02-21T10:11:55.745Z,78.05
2018-02-21T10:12:55.704Z,77.99
2018-02-21T10:13:55.673Z,77.99
2018-02-21T10:14:55.639Z,78.18
2018-02-21T10:15:55.601Z,77.42
2018-02-21T10:16:55.599Z,77.14
2018-02-21T10:17:55.546Z,77.33
2018-02-21T10:18:55.520Z,77.42
2018-02-21T10:19:55.480Z,77.23
2018-02-21T10:20:55.448Z,76.95
2018-02-21T10:21:55.429Z,76.86
2018-02-21T10:22:55.382Z,76.67
2018-02-21T10:23:55.352Z,77.23
2018-02-21T10:24:55.318Z,76.57
2018-02-21T10:25:55.290Z,76.57
2018-02-21T10:26:55.255Z,76.57
2018-02-21T10:27:55.232Z,76.76
2018-02-21T10:28:55.183Z,76.38
2018-02-21T10:29:55.171Z,76.10
2018-02-21T10:30:55.124Z,76.19
2018-02-21T10:31:55.100Z,76.10
2018-02-21T10:32:55.068Z,76.19
2018-02-21T10:33:55.035Z,75.62
2018-02-21T10:34:54.996Z,75.53
2018-02-21T10:35:54.989Z,75.81
2018-02-21T10:36:54.941Z,76.00
2018-02-21T10:37:54.935Z,75.91
2018-02-21T10:38:54.993Z,76.00
2018-02-21T10:39:54.862Z,76.00
2018-02-21T10:40:54.806Z,75.43
2018-02-21T10:41:54.776Z,75.72
2018-02-21T10:42:54.745Z,75.00
2018-02-21T10:43:54.738Z,74.87
2018-02-21T10:44:54.688Z,74.81
2018-02-21T10:45:54.700Z,74.33
2018-02-21T10:46:54.625Z,74.24
2018-02-21T10:47:54.600Z,73.96
2018-02-21T10:48:54.561Z,73.77
2018-02-21T10:49:54.527Z,73.30
2018-02-21T10:50:54.562Z,73.58
2018-02-21T10:51:54.602Z,73.49
2018-02-21T10:52:54.543Z,73.49
2018-02-21T10:53:54.571Z,73.01
2018-02-21T10:54:54.496Z,72.16
2018-02-21T10:55:54.416Z,71.40
2018-02-21T10:56:54.424Z,70.83
2018-02-21T10:57:54.330Z,71.31
2018-02-21T10:58:54.342Z,70.26
2018-02-21T10:59:54.266Z,70.17
2018-02-21T11:00:54.189Z,70.07
2018-02-21T11:01:54.213Z,70.17
2018-02-21T11:02:54.125Z,70.17
2018-02-21T11:03:54.091Z,70.26
2018-02-21T11:04:54.195Z,70.74
2018-02-21T11:05:54.047Z,70.93
2018-02-21T11:06:54.135Z,71.02
2018-02-21T11:07:53.978Z,71.02
2018-02-21T11:08:53.936Z,70.17
2018-02-21T11:09:54.009Z,70.36
2018-02-21T11:10:53.871Z,70.17
2018-02-21T11:11:53.847Z,70.26
2018-02-21T11:12:53.821Z,70.36
2018-02-21T11:13:53.839Z,70.17
2018-02-21T11:14:53.854Z,70.45
2018-02-21T11:15:53.858Z,70.64
2018-02-21T11:16:53.802Z,69.82
2018-02-21T11:17:53.765Z,69.03
2018-02-21T11:18:53.683Z,68.75
2018-02-21T11:19:53.607Z,67.90
2018-02-21T11:20:53.567Z,68.18
2018-02-21T11:21:53.540Z,67.71
2018-02-21T11:22:53.501Z,68.50
2018-02-21T11:23:53.470Z,68.21
2018-02-21T11:24:53.492Z,68.21
2018-02-21T11:25:53.408Z,67.65
2018-02-21T11:26:53.378Z,68.12
2018-02-21T11:27:53.340Z,68.40
2018-02-21T11:28:53.316Z,68.98
2018-02-21T11:29:53.289Z,68.98
2018-02-21T11:30:53.277Z,68.31
2018-02-21T11:31:53.230Z,67.83
2018-02-21T11:32:53.195Z,68.31
2018-02-21T11:33:53.173Z,67.65
2018-02-21T11:34:53.152Z,67.93
2018-02-21T11:35:53.122Z,68.31
2018-02-21T11:36:53.069Z,68.40
2018-02-21T11:37:53.089Z,68.79
2018-02-21T11:38:53.014Z,69.17
2018-02-21T11:39:52.970Z,68.31
2018-02-21T11:40:52.945Z,67.74
2018-02-21T11:41:52.926Z,67.36
2018-02-21T11:42:52.902Z,67.36
2018-02-21T11:43:52.896Z,66.70
2018-02-21T11:44:52.820Z,66.41
2018-02-21T11:45:52.804Z,65.94
2018-02-21T11:46:52.778Z,65.84
2018-02-21T11:47:52.742Z,65.37
2018-02-21T11:48:52.703Z,65.75
2018-02-21T11:49:52.670Z,65.66
2018-02-21T11:50:52.658Z,65.84
2018-02-21T11:51:52.620Z,65.75
2018-02-21T11:52:52.591Z,65.84
2018-02-21T11:53:52.560Z,65.94
2018-02-21T11:54:52.515Z,66.22
2018-02-21T11:55:52.489Z,66.32
2018-02-21T11:56:52.482Z,66.22
2018-02-21T11:57:52.430Z,65.66
2018-02-21T11:58:52.401Z,66.22
2018-02-21T11:59:52.378Z,65.84
2018-02-21T12:00:52.340Z,65.19
2018-02-21T12:01:52.304Z,65.37
2018-02-21T12:02:52.294Z,65.28
2018-02-21T12:03:52.242Z,64.81
2018-02-21T12:04:52.228Z,64.61
2018-02-21T12:05:52.212Z,64.52
2018-02-21T12:06:52.147Z,64.17
2018-02-21T12:07:52.120Z,64.04
2018-02-21T12:08:52.096Z,64.46
2018-02-21T12:09:52.062Z,64.84
2018-02-21T12:10:52.109Z,64.27
2018-02-21T12:11:52.059Z,63.89
2018-02-21T12:12:51.971Z,64.27
2018-02-21T12:13:51.952Z,64.27
2018-02-21T12:14:51.910Z,63.32
2018-02-21T12:15:51.877Z,63.23
2018-02-21T12:16:51.839Z,62.75
2018-02-21T12:17:51.831Z,62.47
2018-02-21T12:18:51.803Z,63.13
2018-02-21T12:19:51.767Z,62.66
2018-02-21T12:20:51.738Z,62.75
2018-02-21T12:21:51.700Z,62.66
2018-02-21T12:22:51.671Z,62.37
2018-02-21T12:23:51.662Z,63.23
2018-02-21T12:24:51.623Z,63.51
2018-02-21T12:25:51.592Z,63.60
2018-02-21T12:26:51.544Z,63.51
2018-02-21T12:27:51.550Z,63.23
2018-02-21T12:28:51.503Z,63.51
2018-02-21T12:29:51.458Z,63.32
2018-02-21T12:30:51.439Z,63.79
2018-02-21T12:31:51.407Z,63.67
2018-02-21T12:32:51.369Z,64.42
2018-02-21T12:33:51.342Z,64.61
2018-02-21T12:34:51.366Z,64.23
2018-02-21T12:35:51.281Z,64.46
2018-02-21T12:36:51.251Z,64.36
2018-02-21T12:37:51.230Z,64.27
2018-02-21T12:38:51.194Z,64.27
2018-02-21T12:39:51.160Z,63.89
2018-02-21T12:40:51.146Z,64.08
2018-02-21T12:41:51.855Z,63.60
2018-02-21T12:42:51.072Z,63.23
2018-02-21T12:43:51.042Z,63.13
2018-02-21T12:44:51.023Z,62.40
2018-02-21T12:45:50.980Z,62.88
2018-02-21T12:46:50.969Z,61.80
2018-02-21T12:47:50.926Z,62.47
2018-02-21T12:48:50.893Z,63.04
2018-02-21T12:49:50.872Z,62.75
2018-02-21T12:50:50.846Z,63.23
2018-02-21T12:51:50.799Z,63.04